Time;durP1;ratioP1;P1;durP2;ratioP2;P2;SDS_P1;SDS_P2;PMS_P1;PMS_P2;Temp;Humidity;BMP_temperature;BMP_pressure;BME280_temperature;BME280_humidity;BME280_pressure;Samples;Min_cycle;Max_cycle;Signal;HPM_P1;HPM_P2
2021/07/11 00:02:02;;;;;;;3.20;1.33;;;;;;;19.71;68.74;100352.38;5088710;28;20406;-76
2021/07/11 00:04:27;;;;;;;1.40;1.30;;;;;;;19.70;69.08;100356.22;5091485;28;20406;-77
2021/07/11 00:06:52;;;;;;;1.30;1.20;;;;;;;19.71;68.94;100355.13;5063816;28;20411;-76
2021/07/11 00:09:18;;;;;;;1.23;1.13;;;;;;;19.71;69.47;100357.88;5073250;28;20459;-76
2021/07/11 00:11:43;;;;;;;1.40;1.40;;;;;;;19.66;69.67;100355.22;5092517;28;20390;-76
2021/07/11 00:14:08;;;;;;;2.07;1.97;;;;;;;19.67;69.53;100349.44;5092125;28;20464;-76
2021/07/11 00:16:34;;;;;;;1.67;1.57;;;;;;;19.70;69.50;100356.22;5092293;28;20406;-76
2021/07/11 00:18:59;;;;;;;2.55;1.50;;;;;;;19.61;69.63;100353.41;5091488;28;20398;-76
2021/07/11 00:21:25;;;;;;;1.50;1.40;;;;;;;19.57;70.09;100357.06;5092142;28;20408;-76
2021/07/11 00:23:50;;;;;;;1.80;1.38;;;;;;;19.55;70.05;100362.88;5090717;28;21012;-76
2021/07/11 00:26:17;;;;;;;1.60;1.50;;;;;;;19.62;69.93;100360.53;5090899;28;20433;-77
2021/07/11 00:28:42;;;;;;;1.75;1.65;;;;;;;19.64;69.88;100352.78;5090570;28;20455;-77
2021/07/11 00:31:08;;;;;;;1.52;1.42;;;;;;;19.63;70.05;100356.66;5091336;28;20398;-77
2021/07/11 00:33:33;;;;;;;2.00;1.50;;;;;;;19.75;69.48;100353.41;5091502;28;20394;-76
2021/07/11 00:35:59;;;;;;;2.50;1.60;;;;;;;19.77;69.30;100358.56;5072920;28;20489;-76
2021/07/11 00:38:24;;;;;;;1.77;1.67;;;;;;;19.71;69.69;100355.13;5090645;28;20753;-76
2021/07/11 00:40:50;;;;;;;3.20;1.90;;;;;;;19.65;69.95;100348.94;5091809;28;20397;-76
2021/07/11 00:43:15;;;;;;;1.85;1.40;;;;;;;19.65;69.95;100343.44;5091861;28;20397;-76
2021/07/11 00:45:41;;;;;;;3.40;1.80;;;;;;;19.59;70.40;100349.34;5091543;28;20926;-77
2021/07/11 00:48:07;;;;;;;3.92;1.85;;;;;;;19.45;70.77;100352.09;5091788;28;20472;-76
2021/07/11 00:50:33;;;;;;;1.75;1.65;;;;;;;19.45;70.96;100356.78;5091638;28;20455;-77
2021/07/11 00:52:58;;;;;;;3.10;1.55;;;;;;;19.49;70.80;100360.56;5073568;28;20397;-76
2021/07/11 00:55:24;;;;;;;3.13;1.83;;;;;;;19.52;70.67;100363.50;5053616;28;20408;-76
2021/07/11 00:57:50;;;;;;;3.38;1.90;;;;;;;19.56;70.36;100363.72;5068180;28;20819;-77
2021/07/11 01:00:16;;;;;;;2.75;1.90;;;;;;;19.60;70.01;100373.75;5091402;28;20428;-77
2021/07/11 01:03:00;;;;;;;1.90;1.50;;;;;;;19.54;70.38;100379.66;5091649;28;20736;-77
2021/07/11 01:05:28;;;;;;;2.37;1.57;;;;;;;19.51;70.46;100372.03;5065915;28;20399;-76
2021/07/11 01:08:03;;;;;;;1.63;1.52;;;;;;;19.44;70.70;100369.69;5031866;28;20439;-77
2021/07/11 01:10:48;;;;;;;2.35;1.65;;;;;;;19.42;70.74;100374.69;5049342;28;20431;-76
2021/07/11 01:13:17;;;;;;;2.30;1.55;;;;;;;19.32;71.11;100368.56;5051077;28;20428;-77
2021/07/11 01:15:46;;;;;;;4.25;1.50;;;;;;;19.37;70.89;100372.00;5051365;28;20402;-77
2021/07/11 01:18:13;;;;;;;1.60;1.40;;;;;;;19.40;70.81;100373.31;5050906;28;20404;-77
2021/07/11 01:20:47;;;;;;;1.90;1.80;;;;;;;19.45;71.05;100373.28;5051296;28;20400;-77
2021/07/11 01:23:21;;;;;;;1.77;1.67;;;;;;;19.50;71.02;100375.91;5050281;28;20445;-77
2021/07/11 01:25:48;;;;;;;3.90;1.85;;;;;;;19.54;71.00;100375.00;5051235;28;20396;-77
2021/07/11 01:28:19;;;;;;;1.98;1.60;;;;;;;19.47;71.10;100379.25;5049462;28;22368;-77
2021/07/11 01:30:48;;;;;;;2.25;1.73;;;;;;;19.50;70.87;100378.66;5051148;28;20409;-78
2021/07/11 01:33:17;;;;;;;1.83;1.80;;;;;;;19.52;70.92;100379.19;5051049;28;20428;-77
2021/07/11 01:35:44;;;;;;;1.48;1.40;;;;;;;19.53;70.93;100378.03;5051092;28;20792;-78
2021/07/11 01:38:10;;;;;;;3.27;2.10;;;;;;;19.45;71.05;100385.09;5048439;28;20451;-77
2021/07/11 01:40:37;;;;;;;1.88;1.80;;;;;;;19.48;70.98;100380.91;5049162;28;20777;-77
2021/07/11 01:43:04;;;;;;;2.00;1.90;;;;;;;19.53;71.16;100380.78;5051081;28;20386;-78
2021/07/11 01:45:29;;;;;;;3.22;1.77;;;;;;;19.57;71.12;100384.56;5050934;28;20393;-77
2021/07/11 01:47:55;;;;;;;2.80;1.90;;;;;;;19.54;71.06;100376.91;5049787;28;20764;-78
2021/07/11 01:50:22;;;;;;;9.20;2.05;;;;;;;19.52;71.07;100377.25;5054661;28;20437;-77
2021/07/11 01:52:49;;;;;;;3.00;2.00;;;;;;;19.45;71.53;100376.00;5054741;28;20480;-77
2021/07/11 01:55:16;;;;;;;2.97;2.10;;;;;;;19.53;71.39;100375.28;5047543;28;20418;-77
2021/07/11 01:57:42;;;;;;;1.80;1.70;;;;;;;19.49;71.72;100374.28;5049182;28;20413;-77
2021/07/11 02:00:10;;;;;;;2.90;1.97;;;;;;;19.47;71.84;100371.84;5053994;28;20405;-77
2021/07/11 02:02:35;;;;;;;2.07;1.97;;;;;;;19.49;71.64;100366.03;5051951;28;20394;-77
2021/07/11 02:05:07;;;;;;;2.35;2.15;;;;;;;19.54;71.58;100357.69;5054568;28;20483;-77
2021/07/11 02:07:32;;;;;;;2.70;2.00;;;;;;;19.47;71.94;100365.53;5089330;28;20413;-77
2021/07/11 02:09:57;;;;;;;2.13;2.00;;;;;;;19.50;72.15;100367.66;5093923;28;20401;-77
2021/07/11 02:12:24;;;;;;;4.67;2.20;;;;;;;19.53;71.81;100362.34;5094744;28;20386;-78
2021/07/11 02:14:52;;;;;;;4.90;2.20;;;;;;;19.46;72.44;100361.94;5093581;28;20552;-78
2021/07/11 02:17:19;;;;;;;2.38;2.17;;;;;;;19.39;73.12;100369.78;5094624;28;20406;-77
2021/07/11 02:19:46;;;;;;;3.08;2.30;;;;;;;19.33;73.24;100367.44;5094657;28;20783;-78
2021/07/11 02:22:13;;;;;;;2.13;2.00;;;;;;;19.38;73.01;100370.91;5093873;28;20408;-77
2021/07/11 02:24:41;;;;;;;3.10;2.30;;;;;;;19.37;72.91;100371.19;5094510;28;20392;-77
2021/07/11 02:27:09;;;;;;;3.63;2.70;;;;;;;19.36;73.24;100370.41;5094524;28;20389;-78
2021/07/11 02:29:39;;;;;;;5.30;2.47;;;;;;;19.38;73.11;100370.06;5093684;28;20494;-77
2021/07/11 02:32:08;;;;;;;2.58;2.25;;;;;;;19.45;72.73;100371.34;5094299;28;20887;-77
2021/07/11 02:34:35;;;;;;;2.47;2.27;;;;;;;19.46;72.65;100361.16;5094428;28;20394;-77
2021/07/11 02:37:02;;;;;;;2.28;2.13;;;;;;;19.51;71.91;100366.53;5093935;28;20506;-77
2021/07/11 02:39:28;;;;;;;1.95;1.95;;;;;;;19.47;72.61;100376.50;5076056;28;20512;-77
2021/07/11 02:42:07;;;;;;;4.78;2.40;;;;;;;19.47;72.42;100368.25;5094140;28;20474;-77
2021/07/11 02:44:35;;;;;;;2.30;2.30;;;;;;;19.43;72.56;100365.31;5084345;28;20408;-78
2021/07/11 02:47:13;;;;;;;5.97;2.88;;;;;;;19.35;72.93;100363.25;5073778;28;20396;-77
2021/07/11 02:49:42;;;;;;;3.38;2.20;;;;;;;19.31;73.01;100373.22;5055813;28;20388;-77
2021/07/11 02:52:08;;;;;;;3.67;2.42;;;;;;;19.27;73.31;100369.44;5057470;28;20404;-78
2021/07/11 02:54:38;;;;;;;3.35;2.17;;;;;;;19.23;73.35;100373.94;5093821;28;20382;-78
2021/07/11 02:57:05;;;;;;;6.05;2.30;;;;;;;19.26;73.05;100380.75;5093883;28;20425;-77
2021/07/11 02:59:33;;;;;;;2.22;2.13;;;;;;;19.31;72.64;100377.91;5071479;28;20407;-76
2021/07/11 03:02:05;;;;;;;4.93;2.30;;;;;;;19.33;72.56;100370.97;5072182;28;20825;-77
2021/07/11 03:04:33;;;;;;;4.10;2.05;;;;;;;19.24;72.99;100366.50;5073463;28;20384;-78
2021/07/11 03:07:00;;;;;;;4.40;1.93;;;;;;;19.29;72.88;100369.16;5073272;28;20396;-77
2021/07/11 03:09:25;;;;;;;5.13;2.67;;;;;;;19.30;72.72;100371.59;5077650;28;20386;-77
2021/07/11 03:11:51;;;;;;;4.50;1.90;;;;;;;19.33;72.83;100372.94;5074174;28;20421;-77
2021/07/11 03:14:17;;;;;;;4.05;2.42;;;;;;;19.32;72.59;100379.53;5093669;28;20396;-77
2021/07/11 03:16:48;;;;;;;4.68;2.25;;;;;;;19.31;72.75;100375.97;5093441;28;20398;-78
2021/07/11 03:19:14;;;;;;;3.65;2.40;;;;;;;19.31;72.61;100383.41;5092335;28;20401;-78
2021/07/11 03:21:39;;;;;;;4.85;2.10;;;;;;;19.25;73.16;100381.88;5091295;28;20435;-77
2021/07/11 03:24:06;;;;;;;2.60;2.40;;;;;;;19.24;73.25;100381.06;5075078;28;20390;-78
2021/07/11 03:26:33;;;;;;;2.17;1.98;;;;;;;19.24;73.16;100386.53;5092700;28;20410;-78
2021/07/11 03:28:59;;;;;;;2.90;2.10;;;;;;;19.26;73.11;100395.31;5093239;28;20857;-77
2021/07/11 03:31:25;;;;;;;3.53;2.23;;;;;;;19.21;73.29;100394.59;5093349;28;20397;-77
2021/07/11 03:33:56;;;;;;;4.28;2.30;;;;;;;19.11;73.51;100392.84;5075183;28;20462;-77
2021/07/11 03:36:23;;;;;;;3.33;2.20;;;;;;;19.09;73.69;100390.41;5093017;28;20402;-78
2021/07/11 03:39:00;;;;;;;2.72;2.53;;;;;;;19.06;73.68;100393.78;5093057;28;20489;-78
2021/07/11 03:41:31;;;;;;;2.95;2.47;;;;;;;19.06;73.55;100402.00;5069875;28;20408;-78
2021/07/11 03:43:59;;;;;;;6.50;3.10;;;;;;;19.15;73.54;100393.88;5081359;28;20421;-78
2021/07/11 03:46:28;;;;;;;3.55;3.25;;;;;;;19.17;73.43;100397.94;5074685;28;20398;-78
2021/07/11 03:48:58;;;;;;;9.57;5.47;;;;;;;19.14;73.27;100405.97;5091642;28;20422;-77
2021/07/11 03:51:27;;;;;;;4.18;2.60;;;;;;;19.17;72.86;100403.44;5093087;28;20383;-78
2021/07/11 03:53:55;;;;;;;2.45;2.33;;;;;;;19.23;72.87;100404.19;5092536;28;20944;-78
2021/07/11 03:56:26;;;;;;;4.88;2.63;;;;;;;19.27;72.68;100399.69;5091133;28;20750;-78
2021/07/11 03:58:54;;;;;;;3.15;2.95;;;;;;;19.20;72.97;100403.97;5092093;28;20402;-78
2021/07/11 04:01:22;;;;;;;3.10;2.50;;;;;;;19.17;73.05;100410.84;5092355;28;20473;-78
2021/07/11 04:03:48;;;;;;;4.93;2.75;;;;;;;19.11;72.96;100412.06;5090245;28;20406;-79
2021/07/11 04:06:17;;;;;;;5.75;2.60;;;;;;;19.11;73.62;100425.81;5092112;28;20819;-78
2021/07/11 04:08:44;;;;;;;3.23;2.83;;;;;;;19.07;73.58;100420.09;5092163;28;20489;-78
2021/07/11 04:11:11;;;;;;;3.55;2.65;;;;;;;19.07;73.53;100427.50;5090662;28;20438;-78
2021/07/11 04:13:36;;;;;;;2.95;2.60;;;;;;;19.05;73.70;100436.06;5091977;28;20397;-78
2021/07/11 04:16:08;;;;;;;3.10;2.58;;;;;;;18.96;73.79;100429.66;5083583;28;20870;-79
2021/07/11 04:18:40;;;;;;;5.03;2.33;;;;;;;18.91;74.17;100428.91;5090321;28;20385;-78
2021/07/11 04:21:06;;;;;;;2.72;2.50;;;;;;;18.92;74.09;100428.63;5072783;28;20390;-78
2021/07/11 04:23:33;;;;;;;5.13;2.85;;;;;;;19.00;73.71;100430.66;5090786;28;20401;-78
2021/07/11 04:25:59;;;;;;;4.18;2.30;;;;;;;19.02;73.71;100433.94;5073673;28;20437;-77
2021/07/11 04:28:30;;;;;;;3.37;3.07;;;;;;;19.04;73.68;100436.38;5091685;28;20491;-78
2021/07/11 04:30:55;;;;;;;4.80;3.00;;;;;;;19.04;73.36;100441.84;5073293;28;20956;-78
2021/07/11 04:33:21;;;;;;;3.07;2.70;;;;;;;18.99;73.40;100433.72;5086839;28;20436;-78
2021/07/11 04:35:46;;;;;;;2.83;2.63;;;;;;;18.92;73.63;100427.78;5090782;28;20406;-78
2021/07/11 04:38:11;;;;;;;4.33;2.70;;;;;;;18.98;73.49;100418.34;5090891;28;20966;-78
2021/07/11 04:40:38;;;;;;;7.13;2.10;;;;;;;18.94;73.62;100418.13;5091566;28;20394;-78
2021/07/11 04:43:03;;;;;;;3.28;2.28;;;;;;;18.94;73.35;100417.31;5091489;28;20394;-78
2021/07/11 04:45:29;;;;;;;2.50;2.30;;;;;;;18.92;73.11;100425.06;5091485;28;20424;-77
2021/07/11 04:47:54;;;;;;;3.55;2.53;;;;;;;18.80;73.49;100420.03;5073316;28;20548;-79
2021/07/11 04:50:20;;;;;;;5.77;2.30;;;;;;;18.81;73.31;100429.88;5056058;28;20425;-78
2021/07/11 04:52:46;;;;;;;7.00;2.20;;;;;;;18.79;73.62;100426.63;5091376;28;20406;-77
2021/07/11 04:55:13;;;;;;;3.53;2.08;;;;;;;18.81;73.54;100426.31;5091217;28;20394;-79
2021/07/11 04:57:39;;;;;;;5.75;2.50;;;;;;;18.85;73.55;100432.84;5074320;28;20505;-80
2021/07/11 05:00:11;;;;;;;4.60;2.15;;;;;;;18.85;73.39;100433.66;5091313;28;20397;-80
2021/07/11 05:02:36;;;;;;;4.77;2.37;;;;;;;18.96;72.72;100443.38;5072690;28;20485;-79
2021/07/11 05:05:03;;;;;;;2.63;2.20;;;;;;;18.92;72.77;100434.09;5088792;28;20880;-80
2021/07/11 05:07:28;;;;;;;3.13;2.30;;;;;;;18.98;72.43;100445.81;5071955;28;20414;-80
2021/07/11 05:09:53;;;;;;;2.73;2.57;;;;;;;19.02;72.41;100446.84;5072728;28;20386;-80
2021/07/11 05:12:19;;;;;;;4.43;2.17;;;;;;;19.07;72.19;100442.06;5090944;28;20427;-80
2021/07/11 05:14:44;;;;;;;4.50;2.80;;;;;;;19.07;72.23;100444.81;5091279;28;20434;-79
2021/07/11 05:17:09;;;;;;;6.97;2.40;;;;;;;19.16;72.49;100455.94;5091217;28;20457;-80
2021/07/11 05:19:36;;;;;;;5.30;2.60;;;;;;;19.20;72.43;100454.19;5073352;28;20443;-79
2021/07/11 05:22:02;;;;;;;2.60;2.25;;;;;;;19.22;72.14;100454.72;5091257;28;20393;-79
2021/07/11 05:24:27;;;;;;;2.83;2.63;;;;;;;19.27;71.40;100451.88;5086736;28;20406;-79
2021/07/11 05:26:53;;;;;;;5.70;3.20;;;;;;;19.27;70.90;100448.31;5094664;28;20742;-80
2021/07/11 05:29:18;;;;;;;6.67;2.60;;;;;;;19.25;71.34;100448.63;5077138;28;20400;-80
2021/07/11 05:31:43;;;;;;;4.13;2.03;;;;;;;19.28;71.24;100449.94;5094436;28;20409;-79
2021/07/11 05:34:09;;;;;;;4.97;3.30;;;;;;;19.34;71.10;100454.22;5093977;28;20409;-80
2021/07/11 05:36:34;;;;;;;5.47;2.33;;;;;;;19.27;70.83;100456.56;5093296;28;20413;-80
2021/07/11 05:38:59;;;;;;;3.43;2.30;;;;;;;19.22;70.58;100454.72;5093967;28;20746;-79
2021/07/11 05:41:24;;;;;;;4.87;2.40;;;;;;;19.30;70.01;100445.00;5092847;28;20406;-79
2021/07/11 05:43:50;;;;;;;4.93;2.23;;;;;;;19.38;69.55;100449.75;5094348;28;20394;-79
2021/07/11 05:46:15;;;;;;;4.40;2.43;;;;;;;19.36;69.70;100457.50;5076235;28;20488;-80
2021/07/11 05:48:40;;;;;;;5.47;2.40;;;;;;;19.38;69.22;100453.34;5094758;28;20397;-79
2021/07/11 05:51:06;;;;;;;3.60;2.00;;;;;;;19.41;69.17;100449.19;5086378;28;20764;-79
2021/07/11 05:53:31;;;;;;;6.57;2.20;;;;;;;19.31;69.47;100452.91;5091561;28;20416;-79
2021/07/11 05:55:56;;;;;;;2.42;2.22;;;;;;;19.24;69.23;100448.91;5094334;28;20418;-80
2021/07/11 05:58:22;;;;;;;3.33;2.33;;;;;;;19.16;69.44;100455.94;5093959;28;20419;-88
2021/07/11 06:00:47;;;;;;;2.53;2.00;;;;;;;19.21;69.24;100457.78;5090464;28;20428;-80
2021/07/11 06:03:12;;;;;;;2.63;1.80;;;;;;;19.26;69.00;100457.69;5073349;28;20409;-80
2021/07/11 06:05:38;;;;;;;4.25;2.50;;;;;;;19.35;68.24;100462.19;5090534;28;20818;-80
2021/07/11 06:08:05;;;;;;;7.93;2.00;;;;;;;19.36;68.71;100458.34;5090829;28;20453;-81
2021/07/11 06:10:31;;;;;;;7.60;2.60;;;;;;;19.38;68.75;100456.09;5083151;28;20454;-80
2021/07/11 06:12:56;;;;;;;6.10;2.30;;;;;;;19.35;69.09;100467.69;5089714;28;20420;-80
2021/07/11 06:15:21;;;;;;;4.17;2.00;;;;;;;19.37;68.57;100459.13;5085963;28;20436;-80
2021/07/11 06:17:47;;;;;;;3.33;1.93;;;;;;;19.39;69.03;100465.16;5091463;28;20750;-80
2021/07/11 06:20:12;;;;;;;3.03;1.70;;;;;;;19.45;68.42;100458.47;5090531;28;20512;-81
2021/07/11 06:22:38;;;;;;;5.77;1.97;;;;;;;19.48;68.18;100461.44;5093955;28;20397;-79
2021/07/11 06:25:08;;;;;;;3.83;2.10;;;;;;;19.50;68.18;100455.59;5091444;28;20402;-79
2021/07/11 06:27:39;;;;;;;2.88;1.70;;;;;;;19.46;68.34;100466.38;5086183;28;20390;-81
2021/07/11 06:30:09;;;;;;;2.95;2.00;;;;;;;19.34;68.49;100462.47;5090108;28;20409;-79
2021/07/11 06:32:34;;;;;;;3.40;1.73;;;;;;;19.33;68.67;100450.66;5091986;28;20405;-79
2021/07/11 06:35:00;;;;;;;3.27;1.80;;;;;;;19.50;67.88;100447.34;5090230;28;21085;-79
2021/07/11 06:37:25;;;;;;;2.93;1.73;;;;;;;19.67;65.95;100451.16;5092881;28;20471;-77
2021/07/11 06:39:50;;;;;;;2.03;1.77;;;;;;;19.73;66.17;100451.84;5083277;28;20406;-80
2021/07/11 06:42:15;;;;;;;6.37;2.00;;;;;;;19.73;65.52;100446.34;5093200;28;20394;-79
2021/07/11 06:44:41;;;;;;;2.57;1.30;;;;;;;19.74;64.26;100453.50;5088100;28;20888;-81
2021/07/11 06:47:08;;;;;;;3.47;1.37;;;;;;;19.74;64.10;100456.25;5089757;28;20390;-78
2021/07/11 06:49:33;;;;;;;3.22;1.50;;;;;;;19.73;64.07;100456.53;5089549;28;20493;-80
2021/07/11 06:51:59;;;;;;;3.67;1.73;;;;;;;19.78;63.97;100460.00;5072224;28;20996;-81
2021/07/11 06:54:24;;;;;;;1.83;1.53;;;;;;;19.83;64.28;100454.41;5087462;28;20424;-82
2021/07/11 06:56:49;;;;;;;1.73;1.50;;;;;;;19.90;64.35;100451.25;5086507;28;20933;-80
2021/07/11 06:59:14;;;;;;;4.10;1.80;;;;;;;19.94;63.85;100455.00;5085096;28;20408;-83
2021/07/11 07:01:40;;;;;;;1.65;1.30;;;;;;;19.98;63.83;100456.03;5093299;28;20394;-82
2021/07/11 07:04:05;;;;;;;1.50;1.40;;;;;;;19.89;63.91;100463.38;5082525;28;22767;-82
2021/07/11 07:06:30;;;;;;;2.40;1.60;;;;;;;19.78;64.23;100459.19;5070224;28;20417;-80
2021/07/11 07:08:56;;;;;;;2.63;1.60;;;;;;;19.80;64.01;100454.19;5087910;28;20455;-82
2021/07/11 07:11:21;;;;;;;3.83;2.03;;;;;;;19.76;63.97;100461.44;5071512;28;20470;-81
2021/07/11 07:13:46;;;;;;;2.93;1.73;;;;;;;19.65;64.83;100458.91;5073028;28;20434;-81
2021/07/11 07:16:11;;;;;;;3.93;2.13;;;;;;;19.59;64.93;100459.31;5090594;28;20427;-79
2021/07/11 07:18:37;;;;;;;2.03;1.40;;;;;;;19.57;65.80;100456.84;5085321;28;20397;-81
2021/07/11 07:21:02;;;;;;;2.88;1.67;;;;;;;19.62;65.73;100462.25;5067247;28;20404;-80
2021/07/11 07:23:28;;;;;;;3.67;1.80;;;;;;;19.62;65.59;100470.50;5084599;28;20496;-81
2021/07/11 07:25:53;;;;;;;3.57;1.90;;;;;;;19.79;65.21;100469.09;5085504;28;20755;-79
2021/07/11 07:28:18;;;;;;;4.82;2.00;;;;;;;19.86;65.28;100469.47;5084783;28;20454;-80
2021/07/11 07:30:44;;;;;;;2.37;1.60;;;;;;;20.02;64.44;100471.59;5079250;28;20456;-80
2021/07/11 07:33:09;;;;;;;6.70;2.20;;;;;;;20.11;64.38;100472.53;5091920;28;20410;-79
2021/07/11 07:35:34;;;;;;;2.08;1.65;;;;;;;20.08;64.44;100475.06;5065551;28;20436;-80
2021/07/11 07:38:00;;;;;;;1.80;1.70;;;;;;;20.02;65.12;100477.09;5091179;28;20429;-80
2021/07/11 07:40:25;;;;;;;2.77;1.80;;;;;;;19.96;65.04;100483.00;5090032;28;20404;-80
2021/07/11 07:42:51;;;;;;;4.77;2.13;;;;;;;20.04;64.99;100483.13;5061851;28;20833;-82
2021/07/11 07:45:17;;;;;;;2.70;2.05;;;;;;;20.09;64.86;100480.25;5089808;28;20420;-80
2021/07/11 07:47:42;;;;;;;3.70;2.10;;;;;;;20.08;64.99;100481.41;5077548;28;20395;-80
2021/07/11 07:50:12;;;;;;;3.70;1.77;;;;;;;20.10;65.46;100481.06;5081019;28;20410;-82
2021/07/11 07:52:38;;;;;;;2.00;1.90;;;;;;;20.07;65.09;100479.75;5054440;28;20967;-80
2021/07/11 07:55:05;;;;;;;2.05;1.92;;;;;;;20.19;64.44;100473.72;5086693;28;20394;-80
2021/07/11 07:57:30;;;;;;;2.45;2.20;;;;;;;20.32;63.55;100485.88;5076890;28;20408;-80
2021/07/11 07:59:55;;;;;;;2.80;2.13;;;;;;;20.42;64.01;100478.19;5084929;28;20982;-81
2021/07/11 08:02:22;;;;;;;4.67;1.90;;;;;;;20.46;64.02;100479.22;5091869;28;20389;-80
2021/07/11 08:04:47;;;;;;;2.00;1.70;;;;;;;20.47;63.35;100477.28;5091943;28;20505;-80
2021/07/11 08:07:13;;;;;;;4.27;2.17;;;;;;;20.37;63.65;100486.56;5074150;28;20963;-82
2021/07/11 08:09:38;;;;;;;4.30;1.90;;;;;;;20.43;63.76;100481.75;5091761;28;20911;-82
2021/07/11 08:12:03;;;;;;;2.73;1.60;;;;;;;20.46;64.02;100479.22;5083449;28;20760;-81
2021/07/11 08:14:28;;;;;;;2.93;2.07;;;;;;;20.61;63.51;100481.59;5088196;28;20451;-83
2021/07/11 08:16:54;;;;;;;6.07;2.35;;;;;;;20.58;63.67;100487.72;5089199;28;20418;-82
2021/07/11 08:19:19;;;;;;;6.37;1.73;;;;;;;20.64;61.90;100492.03;5090039;28;20813;-80
2021/07/11 08:21:45;;;;;;;2.10;1.60;;;;;;;20.76;61.47;100493.38;5089999;28;20398;-79
2021/07/11 08:24:10;;;;;;;2.10;1.90;;;;;;;20.85;61.58;100484.06;5086469;28;20408;-80
2021/07/11 08:26:35;;;;;;;2.78;2.10;;;;;;;20.77;60.55;100492.28;5084487;28;20443;-81
2021/07/11 08:29:01;;;;;;;3.30;1.90;;;;;;;20.77;61.64;100493.09;5088839;28;20390;-81
2021/07/11 08:31:27;;;;;;;2.00;1.83;;;;;;;20.85;61.12;100494.25;5086469;28;20540;-80
2021/07/11 08:33:52;;;;;;;2.73;2.60;;;;;;;20.91;61.07;100487.53;5073194;28;20482;-80
2021/07/11 08:36:18;;;;;;;1.88;1.77;;;;;;;21.01;60.21;100501.06;5084243;28;20953;-81
2021/07/11 08:38:43;;;;;;;1.70;1.60;;;;;;;21.02;59.93;100492.47;5087183;28;20401;-81
2021/07/11 08:41:09;;;;;;;1.70;1.60;;;;;;;21.10;60.10;100504.72;5070993;28;20396;-81
2021/07/11 08:43:38;;;;;;;1.92;1.75;;;;;;;21.28;59.81;100502.88;5086962;28;20912;-80
2021/07/11 08:46:06;;;;;;;3.10;1.70;;;;;;;21.50;58.89;100500.09;5079947;28;20401;-81
2021/07/11 08:48:32;;;;;;;2.15;1.75;;;;;;;21.63;57.65;100497.25;5086853;28;20391;-81
2021/07/11 08:51:03;;;;;;;2.90;2.08;;;;;;;21.74;58.72;100493.06;5080590;28;20396;-81
2021/07/11 08:53:32;;;;;;;3.63;1.60;;;;;;;21.74;59.22;100495.00;5074520;28;20403;-82
2021/07/11 08:56:01;;;;;;;2.03;1.73;;;;;;;21.90;58.08;100499.00;5087288;28;20481;-81
2021/07/11 08:58:27;;;;;;;3.20;1.70;;;;;;;22.20;57.35;100500.06;5091248;28;20872;-80
2021/07/11 09:00:53;;;;;;;2.17;1.60;;;;;;;22.37;56.13;100497.34;5088104;28;20556;-81
2021/07/11 09:03:18;;;;;;;1.85;1.75;;;;;;;22.44;56.38;100500.44;5088983;28;20842;-80
2021/07/11 09:05:43;;;;;;;1.47;1.20;;;;;;;22.43;56.19;100498.81;5078610;28;20407;-82
2021/07/11 09:08:11;;;;;;;4.43;1.50;;;;;;;22.47;55.55;100498.97;5072664;28;21523;-81
2021/07/11 09:10:42;;;;;;;1.60;1.50;;;;;;;22.51;56.02;100494.44;5072841;28;20951;-82
2021/07/11 09:13:12;;;;;;;3.42;1.80;;;;;;;22.65;55.90;100497.88;5090185;28;20492;-81
2021/07/11 09:15:39;;;;;;;2.38;1.63;;;;;;;22.79;55.41;100495.00;5086132;28;20406;-82
2021/07/11 09:18:05;;;;;;;7.22;1.70;;;;;;;22.82;53.82;100495.13;5079548;28;20506;-83
2021/07/11 09:20:31;;;;;;;1.53;1.40;;;;;;;23.00;53.26;100495.94;5085644;28;20491;-81
2021/07/11 09:23:03;;;;;;;2.70;1.77;;;;;;;23.10;52.51;100490.09;5072416;28;20380;-82
2021/07/11 09:25:32;;;;;;;2.50;1.58;;;;;;;23.16;53.05;100492.34;5068059;28;20443;-82
2021/07/11 09:27:57;;;;;;;1.33;1.23;;;;;;;23.29;52.01;100498.81;5065175;28;20454;-81
2021/07/11 09:30:23;;;;;;;1.53;1.50;;;;;;;23.37;52.33;100500.78;5070819;28;20417;-84
2021/07/11 09:32:54;;;;;;;1.20;1.10;;;;;;;23.36;52.28;100490.03;5068903;28;20456;-81
2021/07/11 09:35:24;;;;;;;2.03;1.30;;;;;;;23.47;51.50;100492.16;5067050;28;20401;-82
2021/07/11 09:37:54;;;;;;;2.63;1.45;;;;;;;23.50;52.44;100487.91;5066170;28;20421;-82
2021/07/11 09:40:22;;;;;;;1.92;1.83;;;;;;;23.53;53.35;100488.06;5048344;28;20565;-82
2021/07/11 09:42:50;;;;;;;3.17;1.67;;;;;;;23.67;51.63;100483.13;5063751;28;20497;-81
2021/07/11 09:45:17;;;;;;;1.92;1.30;;;;;;;23.64;51.97;100483.00;5066789;28;20416;-82
2021/07/11 09:47:44;;;;;;;1.58;1.48;;;;;;;23.54;52.86;100483.34;5067880;28;20803;-83
2021/07/11 09:50:16;;;;;;;1.93;1.20;;;;;;;23.43;52.60;100482.88;5066064;28;20459;-82
2021/07/11 09:52:46;;;;;;;1.20;1.20;;;;;;;23.31;52.71;100487.44;5067160;28;20459;-83
2021/07/11 09:55:20;;;;;;;2.78;1.50;;;;;;;23.32;52.50;100472.47;5068700;28;20512;-82
2021/07/11 09:57:52;;;;;;;1.45;1.45;;;;;;;23.52;52.12;100483.66;5064912;28;20898;-81
2021/07/11 10:00:31;;;;;;;2.67;1.60;;;;;;;23.58;51.15;100485.09;5067858;28;20767;-81
2021/07/11 10:02:59;;;;;;;1.70;1.20;;;;;;;23.70;51.66;100489.97;5077209;28;20410;-80
2021/07/11 10:05:26;;;;;;;1.23;1.10;;;;;;;23.78;50.64;100492.69;5078480;28;20898;-83
2021/07/11 10:07:53;;;;;;;1.73;1.35;;;;;;;23.69;50.57;100488.31;5044013;28;20456;-83
2021/07/11 10:10:21;;;;;;;3.45;1.30;;;;;;;23.61;49.97;100478.91;5041691;28;20409;-83
2021/07/11 10:12:48;;;;;;;2.33;1.13;;;;;;;23.46;50.37;100482.22;5051486;28;20517;-82
2021/07/11 10:15:19;;;;;;;2.33;1.20;;;;;;;23.27;51.60;100488.09;5054064;28;20846;-80
2021/07/11 10:17:50;;;;;;;2.47;1.15;;;;;;;23.15;52.57;100492.69;5050165;28;20551;-82
2021/07/11 10:20:21;;;;;;;1.73;1.20;;;;;;;23.04;52.66;100491.41;5049936;28;20405;-82
2021/07/11 10:22:52;;;;;;;2.60;1.50;;;;;;;22.87;54.59;100491.41;5049841;28;20448;-82
2021/07/11 10:25:20;;;;;;;2.80;1.70;;;;;;;23.01;54.32;100490.09;5042318;28;20407;-82
2021/07/11 10:27:47;;;;;;;2.08;1.73;;;;;;;23.24;54.78;100494.31;5049873;28;20406;-81
2021/07/11 10:30:14;;;;;;;3.15;1.42;;;;;;;23.92;53.04;100492.47;5044282;28;21052;-81
2021/07/11 10:32:39;;;;;;;1.43;1.43;;;;;;;23.98;53.09;100495.84;5040134;28;20907;-80
2021/07/11 10:35:09;;;;;;;1.88;1.77;;;;;;;24.61;51.65;100503.97;5045202;28;20419;-80
2021/07/11 10:37:43;;;;;;;3.20;2.13;;;;;;;24.38;51.72;100490.75;5050072;28;20758;-80
2021/07/11 10:40:10;;;;;;;2.97;1.58;;;;;;;24.06;52.67;100500.53;5039458;28;20442;-81
2021/07/11 10:42:39;;;;;;;1.67;1.58;;;;;;;23.77;53.55;100490.25;5045985;28;20951;-84
2021/07/11 10:45:07;;;;;;;4.90;1.63;;;;;;;23.57;54.02;100490.97;5045391;28;20474;-82
2021/07/11 10:47:33;;;;;;;3.95;1.70;;;;;;;23.52;54.47;100489.19;5047594;28;20769;-82
2021/07/11 10:49:58;;;;;;;4.80;1.90;;;;;;;25.71;49.77;100496.91;5043322;28;20407;-81
2021/07/11 10:52:25;;;;;;;1.90;0.97;;;;;;;28.44;41.07;100486.91;5041463;28;20403;-83
2021/07/11 10:54:51;;;;;;;2.90;1.07;;;;;;;30.30;35.69;100488.06;5046329;28;20884;-81
2021/07/11 10:57:34;;;;;;;1.80;1.07;;;;;;;30.25;34.48;100497.59;5045906;28;20419;-81
2021/07/11 11:00:09;;;;;;;4.75;1.60;;;;;;;29.49;36.69;100504.25;5044889;28;20408;-81
2021/07/11 11:02:35;;;;;;;2.28;1.35;;;;;;;31.36;33.64;100495.09;5045289;28;20452;-80
2021/07/11 11:05:02;;;;;;;1.10;1.00;;;;;;;32.96;31.26;100495.16;5046344;28;20444;-82
2021/07/11 11:07:48;;;;;;;1.93;1.13;;;;;;;33.56;32.10;100497.34;5078677;28;20424;-85
2021/07/11 11:10:26;;;;;;;3.50;0.95;;;;;;;34.20;28.25;100496.22;5084162;28;20884;-79
2021/07/11 11:13:01;;;;;;;1.20;1.10;;;;;;;34.74;29.17;100494.91;5060838;28;20425;-82
2021/07/11 11:15:57;;;;;;;4.68;0.98;;;;;;;35.45;26.60;100483.28;5080282;28;20396;-81
2021/07/11 11:18:33;;;;;;;0.95;0.90;;;;;;;34.26;29.51;100488.97;5079897;28;20410;-83
2021/07/11 11:21:07;;;;;;;0.80;0.80;;;;;;;32.55;29.89;100488.91;5087062;28;20413;-80
2021/07/11 11:23:36;;;;;;;1.08;1.08;;;;;;;30.98;33.68;100485.06;5081970;28;20402;-82
2021/07/11 11:26:02;;;;;;;1.97;0.87;;;;;;;29.47;37.01;100477.91;5079414;28;20512;-83